Time;durP1;ratioP1;P1;durP2;ratioP2;P2;SDS_P1;SDS_P2;PMS_P1;PMS_P2;Temp;Humidity;BMP_temperature;BMP_pressure;BME280_temperature;BME280_humidity;BME280_pressure;Samples;Min_cycle;Max_cycle;Signal;HPM_P1;HPM_P2
2024/01/28 00:02:26;;;;;;;;;;;0.80;85.20;;;;;;5160255;27;19923;-72
2024/01/28 00:04:59;;;;;;;;;;;0.70;85.20;;;;;;5162644;27;19962;-72
2024/01/28 00:07:32;;;;;;;;;;;0.70;85.30;;;;;;5161797;27;19923;-73
2024/01/28 00:10:08;;;;;;;;;;;0.70;85.20;;;;;;5159783;27;20586;-62
2024/01/28 00:12:42;;;;;;;;;;;0.70;85.10;;;;;;5161313;27;20390;-60
2024/01/28 00:15:15;;;;;;;;;;;0.70;85.10;;;;;;5159799;27;19926;-61
2024/01/28 00:17:42;;;;;;;;;;;0.60;85.20;;;;;;5162497;27;19958;-60
2024/01/28 00:20:16;;;;;;;;;;;0.70;85.30;;;;;;5162128;27;19930;-61
2024/01/28 00:22:49;;;;;;;;;;;0.70;85.20;;;;;;5158940;27;19979;-61
2024/01/28 00:25:23;;;;;;;;;;;0.70;85.20;;;;;;5163307;27;20021;-63
2024/01/28 00:27:57;;;;;;;;;;;0.70;85.30;;;;;;5161527;27;19933;-62
2024/01/28 00:30:32;;;;;;;;;;;0.70;85.20;;;;;;5160781;27;20036;-61
2024/01/28 00:36:14;;;;;;;;;;;0.60;85.30;;;;;;5158472;27;20013;-62
2024/01/28 00:38:48;;;;;;;;;;;0.70;85.40;;;;;;5162501;27;20001;-62
2024/01/28 00:41:23;;;;;;;;;;;0.70;85.40;;;;;;5160816;27;19926;-62
2024/01/28 00:43:56;;;;;;;;;;;0.60;85.40;;;;;;5158066;27;19945;-60
2024/01/28 00:46:31;;;;;;;;;;;0.60;85.60;;;;;;5160642;27;19996;-62
2024/01/28 00:49:05;;;;;;;;;;;0.60;85.40;;;;;;5162375;27;20005;-62
2024/01/28 00:51:38;;;;;;;;;;;0.40;85.40;;;;;;5161972;27;19923;-62
2024/01/28 00:54:11;;;;;;;;;;;0.40;85.90;;;;;;5160382;27;19927;-62
2024/01/28 00:56:45;;;;;;;;;;;0.40;86.00;;;;;;5159853;27;20038;-62
2024/01/28 00:59:19;;;;;;;;;;;0.40;86.00;;;;;;5156830;27;19930;-63
2024/01/28 01:01:52;;;;;;;;;;;0.40;85.70;;;;;;5158190;27;19931;-62
2024/01/28 01:04:26;;;;;;;;;;;0.50;85.60;;;;;;5160251;27;19945;-63
2024/01/28 01:06:59;;;;;;;;;;;0.50;85.60;;;;;;5161502;27;19926;-63
2024/01/28 01:09:32;;;;;;;;;;;0.60;85.50;;;;;;5161298;27;19930;-63
2024/01/28 01:12:06;;;;;;;;;;;0.60;85.40;;;;;;5160063;27;19931;-62
2024/01/28 01:14:40;;;;;;;;;;;0.60;85.40;;;;;;5161501;27;19922;-61
2024/01/28 01:17:14;;;;;;;;;;;0.50;85.30;;;;;;5159896;27;19983;-62
2024/01/28 01:19:47;;;;;;;;;;;0.50;85.30;;;;;;5161060;27;20013;-64
2024/01/28 01:22:20;;;;;;;;;;;0.50;85.20;;;;;;5158854;27;19923;-63
2024/01/28 01:24:53;;;;;;;;;;;0.40;85.10;;;;;;5160153;27;19980;-65
2024/01/28 01:27:27;;;;;;;;;;;0.40;85.30;;;;;;5159382;27;19949;-63
2024/01/28 01:30:01;;;;;;;;;;;0.40;85.10;;;;;;5159724;27;20011;-65
2024/01/28 01:32:35;;;;;;;;;;;0.40;85.10;;;;;;5159587;27;19923;-63
2024/01/28 01:35:09;;;;;;;;;;;0.50;85.10;;;;;;5158903;27;19931;-63
2024/01/28 01:37:43;;;;;;;;;;;0.50;85.00;;;;;;5158789;27;20388;-64
2024/01/28 01:40:16;;;;;;;;;;;0.40;85.00;;;;;;5160670;27;19923;-62
2024/01/28 01:42:51;;;;;;;;;;;0.40;84.90;;;;;;5157996;27;19934;-63
2024/01/28 01:45:24;;;;;;;;;;;0.40;85.00;;;;;;5158821;27;20598;-63
2024/01/28 01:47:57;;;;;;;;;;;0.40;85.00;;;;;;5160161;27;19930;-61
2024/01/28 01:50:30;;;;;;;;;;;0.40;84.90;;;;;;5156594;27;19930;-63
2024/01/28 01:53:05;;;;;;;;;;;0.30;84.90;;;;;;5138920;27;20405;-63
2024/01/28 01:55:39;;;;;;;;;;;0.30;85.00;;;;;;5160801;27;19923;-63
2024/01/28 01:58:14;;;;;;;;;;;0.30;85.10;;;;;;5160973;27;19927;-63
2024/01/28 02:00:55;;;;;;;;;;;0.30;85.10;;;;;;5156093;27;19938;-64
2024/01/28 02:03:28;;;;;;;;;;;0.30;85.10;;;;;;5158892;27;20006;-63
2024/01/28 02:06:02;;;;;;;;;;;0.30;85.10;;;;;;5159179;27;19930;-65
2024/01/28 02:08:35;;;;;;;;;;;0.20;85.10;;;;;;5157440;27;20422;-64
2024/01/28 02:11:08;;;;;;;;;;;0.20;85.10;;;;;;5161359;27;19963;-63
2024/01/28 02:13:42;;;;;;;;;;;0.30;85.00;;;;;;5160580;27;19968;-64
2024/01/28 02:16:16;;;;;;;;;;;0.30;85.00;;;;;;5157919;27;20381;-64
2024/01/28 02:18:49;;;;;;;;;;;0.20;85.10;;;;;;5159136;27;19934;-63
2024/01/28 02:21:22;;;;;;;;;;;0.30;85.10;;;;;;5159578;27;20059;-64
2024/01/28 02:23:56;;;;;;;;;;;0.30;85.00;;;;;;5158965;27;19927;-63
2024/01/28 02:26:30;;;;;;;;;;;0.30;84.90;;;;;;5161187;27;20376;-63
2024/01/28 02:29:03;;;;;;;;;;;0.30;84.90;;;;;;5159862;27;20272;-64
2024/01/28 02:31:37;;;;;;;;;;;0.20;85.00;;;;;;5159710;27;19926;-73
2024/01/28 02:34:10;;;;;;;;;;;0.20;84.80;;;;;;5159210;27;19927;-73
2024/01/28 02:36:43;;;;;;;;;;;0.20;84.80;;;;;;5159806;27;19991;-73
2024/01/28 02:39:17;;;;;;;;;;;0.10;84.80;;;;;;5159812;27;20015;-73
2024/01/28 02:41:44;;;;;;;;;;;0.10;84.90;;;;;;5159008;27;19929;-72
2024/01/28 02:44:17;;;;;;;;;;;0.10;84.70;;;;;;5159638;27;19923;-74
2024/01/28 02:46:50;;;;;;;;;;;0.10;84.70;;;;;;5159891;27;20395;-73
2024/01/28 02:49:24;;;;;;;;;;;0.10;84.80;;;;;;5158155;27;19923;-73
2024/01/28 02:51:58;;;;;;;;;;;0.00;84.80;;;;;;5160630;27;19975;-74
2024/01/28 02:54:32;;;;;;;;;;;0.00;84.70;;;;;;5160720;27;20022;-73
2024/01/28 02:57:06;;;;;;;;;;;0.00;84.70;;;;;;5158719;27;19929;-74
2024/01/28 02:59:39;;;;;;;;;;;0.10;84.70;;;;;;5158524;27;19923;-74
2024/01/28 03:02:13;;;;;;;;;;;0.00;84.70;;;;;;5160849;27;20038;-74
2024/01/28 03:04:46;;;;;;;;;;;0.00;84.70;;;;;;5159667;27;19927;-74
2024/01/28 03:07:19;;;;;;;;;;;0.00;84.70;;;;;;5159230;27;20021;-74
2024/01/28 03:09:53;;;;;;;;;;;0.00;84.60;;;;;;5164526;27;19927;-74
2024/01/28 03:12:27;;;;;;;;;;;0.00;84.70;;;;;;5158354;27;19931;-74
2024/01/28 03:14:53;;;;;;;;;;;0.00;84.70;;;;;;5157949;27;19927;-73
2024/01/28 03:17:27;;;;;;;;;;;0.00;84.60;;;;;;5141285;27;19927;-73
2024/01/28 03:20:00;;;;;;;;;;;0.00;84.70;;;;;;5151105;27;19923;-73
2024/01/28 03:22:33;;;;;;;;;;;0.00;84.60;;;;;;5142279;27;19930;-73
2024/01/28 03:25:08;;;;;;;;;;;0.00;84.80;;;;;;5141900;27;20338;-73
2024/01/28 03:27:42;;;;;;;;;;;0.00;84.80;;;;;;5145845;27;21337;-74
2024/01/28 03:30:15;;;;;;;;;;;0.00;84.80;;;;;;5140257;27;19966;-75
2024/01/28 03:32:49;;;;;;;;;;;0.00;84.60;;;;;;5150013;27;19929;-73
2024/01/28 03:35:15;;;;;;;;;;;0.00;84.60;;;;;;5144131;27;19935;-72
2024/01/28 03:37:49;;;;;;;;;;;0.00;84.80;;;;;;5142314;27;19923;-73
2024/01/28 03:40:23;;;;;;;;;;;0.00;84.90;;;;;;5141977;27;20424;-61
2024/01/28 03:42:57;;;;;;;;;;;-3276.70;85.00;;;;;;5146316;27;19979;-62
2024/01/28 03:45:30;;;;;;;;;;;-3276.60;86.20;;;;;;5162501;27;19933;-61
2024/01/28 03:48:03;;;;;;;;;;;-3276.70;86.00;;;;;;5163092;27;20433;-62
2024/01/28 03:50:36;;;;;;;;;;;-3276.70;86.00;;;;;;5161859;27;19945;-62
2024/01/28 03:53:09;;;;;;;;;;;0.00;85.90;;;;;;5162727;27;19949;-62
2024/01/28 03:55:45;;;;;;;;;;;0.00;85.80;;;;;;5161819;27;20034;-61
2024/01/28 03:58:18;;;;;;;;;;;0.00;85.60;;;;;;5161454;27;19929;-62
2024/01/28 04:00:44;;;;;;;;;;;0.00;85.40;;;;;;5161011;27;19923;-61
2024/01/28 04:03:18;;;;;;;;;;;0.00;85.30;;;;;;5159002;27;20034;-60
2024/01/28 04:05:51;;;;;;;;;;;0.00;85.30;;;;;;5159856;27;19923;-61
2024/01/28 04:08:24;;;;;;;;;;;0.00;85.30;;;;;;5162572;27;19923;-61
2024/01/28 04:10:58;;;;;;;;;;;0.00;85.30;;;;;;5160681;27;20262;-62
2024/01/28 04:13:32;;;;;;;;;;;0.00;85.30;;;;;;5159920;27;19927;-62
2024/01/28 04:16:05;;;;;;;;;;;0.00;85.20;;;;;;5160846;27;19933;-63
2024/01/28 04:18:38;;;;;;;;;;;0.00;85.30;;;;;;5160582;27;20304;-60
2024/01/28 04:21:11;;;;;;;;;;;0.00;85.20;;;;;;5162088;27;20341;-61
2024/01/28 04:23:46;;;;;;;;;;;-3276.70;85.20;;;;;;5161925;27;19966;-62
2024/01/28 04:26:22;;;;;;;;;;;-3276.70;85.50;;;;;;5161203;27;19980;-62
2024/01/28 04:28:55;;;;;;;;;;;0.00;85.30;;;;;;5160800;27;20368;-62
2024/01/28 04:31:29;;;;;;;;;;;0.00;85.40;;;;;;5142939;27;20015;-60
2024/01/28 04:34:02;;;;;;;;;;;-3276.70;85.50;;;;;;5158063;27;19958;-64
2024/01/28 04:36:28;;;;;;;;;;;-3276.70;85.60;;;;;;5161250;27;19927;-62
2024/01/28 04:39:02;;;;;;;;;;;-3276.70;85.40;;;;;;5159592;27;19931;-64
2024/01/28 04:41:36;;;;;;;;;;;-3276.70;85.50;;;;;;5157582;27;20278;-62
2024/01/28 04:44:10;;;;;;;;;;;-3276.70;85.60;;;;;;5145609;27;19988;-61
2024/01/28 04:46:45;;;;;;;;;;;0.00;85.60;;;;;;5147770;27;19971;-62
2024/01/28 04:49:18;;;;;;;;;;;0.00;85.50;;;;;;5143775;27;19923;-72
2024/01/28 04:51:59;;;;;;;;;;;0.00;85.50;;;;;;5159634;27;19923;-61
2024/01/28 04:54:32;;;;;;;;;;;-3276.60;86.00;;;;;;5160807;27;19926;-62
2024/01/28 04:57:07;;;;;;;;;;;-3276.70;85.90;;;;;;5156545;27;20021;-61
2024/01/28 04:59:41;;;;;;;;;;;-3276.70;86.00;;;;;;5159656;27;19983;-61
2024/01/28 05:02:08;;;;;;;;;;;-3276.70;86.10;;;;;;5158273;27;19934;-61
2024/01/28 05:04:41;;;;;;;;;;;-3276.70;85.80;;;;;;5160772;27;19927;-62
2024/01/28 05:07:16;;;;;;;;;;;-3276.70;86.00;;;;;;5159501;27;20044;-61
2024/01/28 05:09:49;;;;;;;;;;;-3276.60;86.00;;;;;;5160001;27;19987;-62
2024/01/28 05:12:17;;;;;;;;;;;-3276.60;86.30;;;;;;5159520;27;19934;-61
2024/01/28 05:14:51;;;;;;;;;;;-3276.60;86.70;;;;;;5158902;27;19923;-62
2024/01/28 05:17:25;;;;;;;;;;;-3276.50;86.90;;;;;;5161732;27;19929;-62
2024/01/28 05:19:58;;;;;;;;;;;-3276.50;86.60;;;;;;5159779;27;19927;-60
2024/01/28 05:22:24;;;;;;;;;;;-3276.60;86.20;;;;;;5159427;27;19927;-61
2024/01/28 05:25:00;;;;;;;;;;;-3276.50;86.60;;;;;;5159286;27;20009;-61
2024/01/28 05:27:35;;;;;;;;;;;-3276.50;86.30;;;;;;5160441;27;19927;-61
2024/01/28 05:30:09;;;;;;;;;;;-3276.50;86.30;;;;;;5158962;27;20391;-61
2024/01/28 05:32:43;;;;;;;;;;;-3276.40;86.10;;;;;;5158895;27;19941;-62
2024/01/28 05:35:16;;;;;;;;;;;-3276.40;86.20;;;;;;5159893;27;20381;-61
2024/01/28 05:37:49;;;;;;;;;;;-3276.50;86.10;;;;;;5158711;27;20324;-60
2024/01/28 05:40:23;;;;;;;;;;;-3276.60;86.10;;;;;;5161417;27;19931;-62
2024/01/28 05:43:03;;;;;;;;;;;-3276.60;85.90;;;;;;5158294;27;19948;-61
2024/01/28 05:45:37;;;;;;;;;;;-3276.50;86.00;;;;;;5155694;27;19926;-60
2024/01/28 05:48:10;;;;;;;;;;;-3276.40;86.20;;;;;;5160328;27;19951;-62
2024/01/28 05:50:43;;;;;;;;;;;-3276.30;86.40;;;;;;5159044;27;19937;-62
2024/01/28 05:53:16;;;;;;;;;;;-3276.40;87.10;;;;;;5160382;27;19934;-61
2024/01/28 05:55:49;;;;;;;;;;;-3276.50;86.80;;;;;;5158753;27;20376;-62
2024/01/28 05:58:24;;;;;;;;;;;-3276.50;86.30;;;;;;5160287;27;20478;-61
2024/01/28 06:00:51;;;;;;;;;;;-3276.60;86.40;;;;;;5160611;27;20788;-77
2024/01/28 06:03:24;;;;;;;;;;;-3276.50;86.30;;;;;;5159850;27;19927;-76
2024/01/28 06:05:57;;;;;;;;;;;-3276.60;86.50;;;;;;5158441;27;19933;-74
2024/01/28 06:08:30;;;;;;;;;;;-3276.60;86.30;;;;;;5160572;27;19945;-79
2024/01/28 06:11:03;;;;;;;;;;;-3276.70;86.10;;;;;;5160387;27;19940;-77
2024/01/28 06:13:37;;;;;;;;;;;-3276.60;85.90;;;;;;5159477;27;19930;-78
2024/01/28 06:16:11;;;;;;;;;;;-3276.60;86.20;;;;;;5159605;27;20014;-77
2024/01/28 06:18:44;;;;;;;;;;;-3276.60;86.00;;;;;;5159386;27;19923;-78
2024/01/28 06:21:11;;;;;;;;;;;-3276.50;86.10;;;;;;5159776;27;19930;-76
2024/01/28 06:23:45;;;;;;;;;;;-3276.60;86.20;;;;;;5160247;27;20007;-75
2024/01/28 06:26:18;;;;;;;;;;;-3276.60;85.90;;;;;;5157895;27;19926;-76
2024/01/28 06:28:53;;;;;;;;;;;-3276.60;85.90;;;;;;5159485;27;20353;-76
2024/01/28 06:31:20;;;;;;;;;;;-3276.60;85.70;;;;;;5158935;27;20369;-77
2024/01/28 06:33:54;;;;;;;;;;;-3276.40;85.90;;;;;;5159955;27;19927;-78
2024/01/28 06:36:27;;;;;;;;;;;-3276.30;86.00;;;;;;5159949;27;19927;-77
2024/01/28 06:39:00;;;;;;;;;;;-3276.30;86.10;;;;;;5159017;27;19970;-77
2024/01/28 06:41:34;;;;;;;;;;;-3276.30;86.20;;;;;;5140484;27;19927;-77
2024/01/28 06:44:08;;;;;;;;;;;-3276.40;85.90;;;;;;5143625;27;19980;-76
2024/01/28 06:46:42;;;;;;;;;;;-3276.20;85.90;;;;;;5145170;27;19927;-77
2024/01/28 06:49:15;;;;;;;;;;;-3276.20;86.30;;;;;;5152802;27;19930;-78
2024/01/28 06:51:48;;;;;;;;;;;-3276.10;86.10;;;;;;5139659;27;19927;-78
2024/01/28 06:54:21;;;;;;;;;;;-3276.10;86.40;;;;;;5146386;27;19959;-78
2024/01/28 06:56:54;;;;;;;;;;;-3276.10;86.50;;;;;;5142782;27;19927;-78
2024/01/28 06:59:28;;;;;;;;;;;-3276.20;86.20;;;;;;5153592;27;19932;-76
2024/01/28 07:02:02;;;;;;;;;;;-3276.30;85.90;;;;;;5144883;27;20019;-75
2024/01/28 07:04:35;;;;;;;;;;;-3276.30;85.80;;;;;;5148377;27;19930;-76
2024/01/28 07:07:08;;;;;;;;;;;-3276.40;85.60;;;;;;5146365;27;19976;-78
2024/01/28 07:09:41;;;;;;;;;;;-3276.30;85.30;;;;;;5146269;27;19930;-72
2024/01/28 07:12:14;;;;;;;;;;;-3276.10;85.80;;;;;;5143889;27;19934;-72
2024/01/28 07:14:48;;;;;;;;;;;-3276.20;86.10;;;;;;5143895;27;19946;-72
2024/01/28 07:17:22;;;;;;;;;;;-3276.10;86.20;;;;;;5142916;27;20021;-72
2024/01/28 07:19:55;;;;;;;;;;;-3276.20;86.20;;;;;;5161671;27;20085;-72
2024/01/28 07:22:28;;;;;;;;;;;-3276.30;86.00;;;;;;5161660;27;20721;-72
2024/01/28 07:25:01;;;;;;;;;;;-3276.20;85.80;;;;;;5163952;27;19984;-72
2024/01/28 07:27:34;;;;;;;;;;;-3276.10;86.50;;;;;;5162492;27;19934;-72
2024/01/28 07:30:09;;;;;;;;;;;-3276.20;86.70;;;;;;5160528;27;19933;-73
2024/01/28 07:32:42;;;;;;;;;;;-3276.30;86.30;;;;;;5160938;27;19929;-72
2024/01/28 07:35:15;;;;;;;;;;;-3276.30;86.20;;;;;;5162067;27;20034;-72
2024/01/28 07:37:49;;;;;;;;;;;-3276.30;86.20;;;;;;5163692;27;20101;-72
2024/01/28 07:40:22;;;;;;;;;;;-3276.40;86.40;;;;;;5163625;27;19934;-72
2024/01/28 07:42:56;;;;;;;;;;;-3276.30;86.40;;;;;;5163692;27;19927;-73
2024/01/28 07:45:30;;;;;;;;;;;-3276.40;86.30;;;;;;5163282;27;20017;-72
2024/01/28 07:48:04;;;;;;;;;;;-3276.40;86.40;;;;;;5161829;27;20372;-72
2024/01/28 07:50:38;;;;;;;;;;;-3276.50;86.20;;;;;;5151171;27;19946;-72
2024/01/28 07:53:12;;;;;;;;;;;-3276.50;86.20;;;;;;5162107;27;20288;-71
2024/01/28 07:55:46;;;;;;;;;;;-3276.50;86.40;;;;;;5162151;27;19983;-72
2024/01/28 07:58:19;;;;;;;;;;;-3276.50;86.40;;;;;;5161040;27;19970;-72
2024/01/28 08:00:53;;;;;;;;;;;-3276.50;86.60;;;;;;5160341;27;19930;-73
2024/01/28 08:03:27;;;;;;;;;;;-3276.60;86.40;;;;;;5160052;27;20010;-71
2024/01/28 08:06:00;;;;;;;;;;;-3276.60;86.30;;;;;;5162865;27;19929;-72
2024/01/28 08:08:34;;;;;;;;;;;-3276.60;86.40;;;;;;5162247;27;19923;-71
2024/01/28 08:11:00;;;;;;;;;;;-3276.60;86.40;;;;;;5161542;27;19923;-72
2024/01/28 08:13:34;;;;;;;;;;;-3276.70;86.30;;;;;;5150241;27;19979;-73
2024/01/28 08:16:12;;;;;;;;;;;-3276.70;86.40;;;;;;5160321;27;20295;-71
2024/01/28 08:18:45;;;;;;;;;;;0.00;86.60;;;;;;5159078;27;19923;-72
2024/01/28 08:21:19;;;;;;;;;;;0.00;86.60;;;;;;5161746;27;20013;-63
2024/01/28 08:23:52;;;;;;;;;;;0.00;86.60;;;;;;5161005;27;19923;-63
2024/01/28 08:26:25;;;;;;;;;;;0.00;86.40;;;;;;5163942;27;19923;-62
2024/01/28 08:28:58;;;;;;;;;;;0.00;86.20;;;;;;5161354;27;19971;-62
2024/01/28 08:31:32;;;;;;;;;;;0.00;86.60;;;;;;5162337;27;20318;-63
2024/01/28 08:34:06;;;;;;;;;;;0.00;86.70;;;;;;5159984;27;19926;-63
2024/01/28 08:36:39;;;;;;;;;;;0.10;86.50;;;;;;5162229;27;19923;-64
2024/01/28 08:39:14;;;;;;;;;;;0.10;86.60;;;;;;5160964;27;19973;-63
2024/01/28 08:41:41;;;;;;;;;;;0.10;86.70;;;;;;5162027;27;19927;-63
2024/01/28 08:44:15;;;;;;;;;;;0.10;86.80;;;;;;5161458;27;19927;-63
2024/01/28 08:46:49;;;;;;;;;;;0.20;86.90;;;;;;5160450;27;19927;-63
2024/01/28 08:49:23;;;;;;;;;;;0.20;86.90;;;;;;5159200;27;19929;-62
2024/01/28 08:51:56;;;;;;;;;;;0.30;87.00;;;;;;5160286;27;19934;-63
2024/01/28 08:54:30;;;;;;;;;;;0.30;87.00;;;;;;5161994;27;19931;-62
2024/01/28 08:57:04;;;;;;;;;;;0.30;87.30;;;;;;5160514;27;20626;-63
2024/01/28 08:59:37;;;;;;;;;;;0.30;87.20;;;;;;5163023;27;19927;-63
2024/01/28 09:02:12;;;;;;;;;;;0.40;87.70;;;;;;5161186;27;19923;-63
2024/01/28 09:04:46;;;;;;;;;;;0.40;87.70;;;;;;5158738;27;19931;-63
2024/01/28 09:07:19;;;;;;;;;;;0.40;87.50;;;;;;5160509;27;19934;-63
2024/01/28 09:09:52;;;;;;;;;;;0.50;87.50;;;;;;5162094;27;19926;-61
2024/01/28 09:12:25;;;;;;;;;;;0.60;87.40;;;;;;5161652;27;20010;-63
2024/01/28 09:14:58;;;;;;;;;;;0.60;87.50;;;;;;5158488;27;20789;-61
2024/01/28 09:17:32;;;;;;;;;;;0.60;87.50;;;;;;5161827;27;20392;-63
2024/01/28 09:20:06;;;;;;;;;;;0.70;87.80;;;;;;5160576;27;19930;-64
2024/01/28 09:22:40;;;;;;;;;;;0.70;87.70;;;;;;5161066;27;19923;-62
2024/01/28 09:25:13;;;;;;;;;;;0.70;87.70;;;;;;5142459;27;19922;-63
2024/01/28 09:27:48;;;;;;;;;;;0.70;87.70;;;;;;5162497;27;19970;-62
2024/01/28 09:30:45;;;;;;;;;;;0.80;87.90;;;;;;5158474;27;19934;-61
2024/01/28 09:33:19;;;;;;;;;;;0.90;87.90;;;;;;5157143;27;19929;-61
2024/01/28 09:35:53;;;;;;;;;;;0.90;87.80;;;;;;5161055;27;19927;-62
2024/01/28 09:38:26;;;;;;;;;;;1.00;87.80;;;;;;5161786;27;19934;-62
2024/01/28 09:41:01;;;;;;;;;;;1.00;87.90;;;;;;5158023;27;19938;-62
2024/01/28 09:43:39;;;;;;;;;;;1.10;87.90;;;;;;5161174;27;19923;-61
2024/01/28 09:46:12;;;;;;;;;;;1.10;87.90;;;;;;5158817;27;19967;-61
2024/01/28 09:48:47;;;;;;;;;;;1.20;87.90;;;;;;5160219;27;19929;-62
2024/01/28 09:51:21;;;;;;;;;;;1.20;87.90;;;;;;5162476;27;19976;-62
2024/01/28 09:53:54;;;;;;;;;;;1.30;87.80;;;;;;5159926;27;19922;-62
2024/01/28 09:56:28;;;;;;;;;;;1.40;87.90;;;;;;5160660;27;19927;-61
2024/01/28 09:59:01;;;;;;;;;;;1.40;87.90;;;;;;5160827;27;19930;-61
2024/01/28 10:01:34;;;;;;;;;;;1.50;88.20;;;;;;5158830;27;19933;-62
2024/01/28 10:04:10;;;;;;;;;;;1.50;88.10;;;;;;5160251;27;19991;-62
2024/01/28 10:06:43;;;;;;;;;;;1.70;88.30;;;;;;5160101;27;19984;-62
2024/01/28 10:09:16;;;;;;;;;;;1.70;88.30;;;;;;5158857;27;19927;-62
2024/01/28 10:11:49;;;;;;;;;;;1.80;88.10;;;;;;5159332;27;19923;-61
2024/01/28 10:14:23;;;;;;;;;;;1.90;88.00;;;;;;5160409;27;20391;-61
2024/01/28 10:16:50;;;;;;;;;;;2.00;88.30;;;;;;5160395;27;19927;-62
2024/01/28 10:19:25;;;;;;;;;;;2.10;88.20;;;;;;5163189;27;20012;-61
2024/01/28 10:21:59;;;;;;;;;;;2.20;88.30;;;;;;5162603;27;19934;-60
2024/01/28 10:24:32;;;;;;;;;;;2.20;87.80;;;;;;5165063;27;19927;-62
2024/01/28 10:27:07;;;;;;;;;;;2.30;88.40;;;;;;5164107;27;19941;-61
2024/01/28 10:29:43;;;;;;;;;;;2.40;88.10;;;;;;5162872;27;19926;-61
2024/01/28 10:32:16;;;;;;;;;;;2.40;88.00;;;;;;5162326;27;19967;-60
2024/01/28 10:34:51;;;;;;;;;;;2.50;88.00;;;;;;5162577;27;19926;-61
2024/01/28 10:37:28;;;;;;;;;;;2.60;87.80;;;;;;5165077;27;20063;-61
2024/01/28 10:40:03;;;;;;;;;;;2.70;88.00;;;;;;5164509;27;19922;-70
2024/01/28 10:42:37;;;;;;;;;;;2.70;87.80;;;;;;5156826;27;19927;-72
2024/01/28 10:45:11;;;;;;;;;;;2.80;87.60;;;;;;5160548;27;20266;-71
2024/01/28 10:47:45;;;;;;;;;;;2.90;87.40;;;;;;5162498;27;19937;-72
2024/01/28 10:50:21;;;;;;;;;;;2.90;87.30;;;;;;5163410;27;20422;-72
2024/01/28 10:52:54;;;;;;;;;;;3.00;87.00;;;;;;5158400;27;19930;-71
2024/01/28 10:55:28;;;;;;;;;;;3.10;86.70;;;;;;5162754;27;19979;-70
2024/01/28 10:58:03;;;;;;;;;;;3.20;86.50;;;;;;5164398;27;19934;-71
2024/01/28 11:00:31;;;;;;;;;;;3.20;86.70;;;;;;5165013;27;20354;-73
2024/01/28 11:03:07;;;;;;;;;;;3.20;87.00;;;;;;5164830;27;19931;-71
2024/01/28 11:05:42;;;;;;;;;;;3.30;86.90;;;;;;5164047;27;19993;-71
2024/01/28 11:08:16;;;;;;;;;;;3.30;86.90;;;;;;5161698;27;19927;-72
2024/01/28 11:10:49;;;;;;;;;;;3.40;86.90;;;;;;5164226;27;19929;-71
2024/01/28 11:13:22;;;;;;;;;;;3.40;86.90;;;;;;5164035;27;19935;-72
2024/01/28 11:15:55;;;;;;;;;;;3.50;86.50;;;;;;5161109;27;19987;-72
2024/01/28 11:18:28;;;;;;;;;;;3.50;86.60;;;;;;5162425;27;19923;-73
2024/01/28 11:21:11;;;;;;;;;;;3.60;86.60;;;;;;5162918;27;19927;-72
2024/01/28 11:23:45;;;;;;;;;;;3.60;86.30;;;;;;5145510;27;19936;-72
2024/01/28 11:26:19;;;;;;;;;;;3.60;86.10;;;;;;5142600;27;19980;-71
2024/01/28 11:28:54;;;;;;;;;;;3.70;86.30;;;;;;5144446;27;20373;-72
2024/01/28 11:31:53;;;;;;;;;;;3.70;86.10;;;;;;5159505;27;19953;-71
2024/01/28 11:34:27;;;;;;;;;;;3.70;85.80;;;;;;5142826;27;19927;-73
2024/01/28 11:37:05;;;;;;;;;;;3.70;85.70;;;;;;5142404;27;20309;-72
2024/01/28 11:39:45;;;;;;;;;;;3.80;85.30;;;;;;5145558;27;19929;-71
2024/01/28 11:42:18;;;;;;;;;;;3.80;85.30;;;;;;5159968;27;19927;-71
2024/01/28 11:44:51;;;;;;;;;;;3.80;85.30;;;;;;5155648;27;19927;-72
2024/01/28 11:47:24;;;;;;;;;;;3.80;85.10;;;;;;5141686;27;19999;-71
2024/01/28 11:49:57;;;;;;;;;;;3.80;84.90;;;;;;5158490;27;20342;-62
2024/01/28 11:52:32;;;;;;;;;;;3.90;84.90;;;;;;5156120;27;21032;-62
2024/01/28 11:55:12;;;;;;;;;;;3.90;84.90;;;;;;5144403;27;20282;-62
2024/01/28 11:57:46;;;;;;;;;;;4.00;84.80;;;;;;5136028;27;19927;-63
2024/01/28 12:00:20;;;;;;;;;;;4.00;84.90;;;;;;5142745;27;19930;-62
2024/01/28 12:02:54;;;;;;;;;;;4.00;84.30;;;;;;5143861;27;20373;-63
2024/01/28 12:05:28;;;;;;;;;;;4.10;84.80;;;;;;5159949;27;19926;-62
2024/01/28 12:08:03;;;;;;;;;;;4.20;84.40;;;;;;5164145;27;19923;-62
2024/01/28 12:10:36;;;;;;;;;;;4.20;84.10;;;;;;5163004;27;19923;-63
2024/01/28 12:13:12;;;;;;;;;;;4.20;84.20;;;;;;5156601;27;20377;-62
2024/01/28 12:15:45;;;;;;;;;;;4.20;84.00;;;;;;5157805;27;19949;-62
2024/01/28 12:18:18;;;;;;;;;;;4.30;84.20;;;;;;5140366;27;19933;-63
2024/01/28 12:20:51;;;;;;;;;;;4.30;83.30;;;;;;5138660;27;19939;-62
2024/01/28 12:23:26;;;;;;;;;;;4.30;83.30;;;;;;5142673;27;20278;-63
2024/01/28 12:26:00;;;;;;;;;;;4.30;83.60;;;;;;5141946;27;19935;-62
2024/01/28 12:28:33;;;;;;;;;;;4.30;83.20;;;;;;5161201;27;19927;-63
2024/01/28 12:31:07;;;;;;;;;;;4.40;82.90;;;;;;5160778;27;20266;-63
2024/01/28 12:33:41;;;;;;;;;;;4.40;82.70;;;;;;5155913;27;20403;-62
2024/01/28 12:36:14;;;;;;;;;;;4.50;82.50;;;;;;5160599;27;19926;-64
2024/01/28 12:38:48;;;;;;;;;;;4.50;82.40;;;;;;5160130;27;19929;-63
2024/01/28 12:41:23;;;;;;;;;;;4.50;82.60;;;;;;5158627;27;19938;-62
2024/01/28 12:43:57;;;;;;;;;;;4.50;82.40;;;;;;5161729;27;19979;-62
2024/01/28 12:46:31;;;;;;;;;;;4.50;82.60;;;;;;5160696;27;19927;-63
2024/01/28 12:49:05;;;;;;;;;;;4.50;82.90;;;;;;5158148;27;19931;-63
2024/01/28 12:51:38;;;;;;;;;;;4.60;82.10;;;;;;5160065;27;19961;-62
2024/01/28 12:54:13;;;;;;;;;;;4.70;82.00;;;;;;5158060;27;19930;-63
2024/01/28 12:56:47;;;;;;;;;;;4.70;82.10;;;;;;5159707;27;20334;-63
2024/01/28 12:59:23;;;;;;;;;;;4.70;82.00;;;;;;5156963;27;19923;-62
2024/01/28 13:01:56;;;;;;;;;;;4.70;81.90;;;;;;5161622;27;20139;-61
2024/01/28 13:04:29;;;;;;;;;;;4.70;81.50;;;;;;5143898;27;19931;-61
2024/01/28 13:07:02;;;;;;;;;;;4.80;81.00;;;;;;5143093;27;19969;-62
2024/01/28 13:09:30;;;;;;;;;;;4.90;80.90;;;;;;5149566;27;20258;-61
2024/01/28 13:12:03;;;;;;;;;;;4.90;80.50;;;;;;5140379;27;19927;-62
2024/01/28 13:15:05;;;;;;;;;;;4.90;80.70;;;;;;5139457;27;19934;-62
2024/01/28 13:17:45;;;;;;;;;;;5.00;80.50;;;;;;5140535;27;20026;-63
2024/01/28 13:20:19;;;;;;;;;;;4.90;80.50;;;;;;5136784;27;20054;-60
2024/01/28 13:22:52;;;;;;;;;;;5.00;80.30;;;;;;5137055;27;20639;-62
2024/01/28 13:25:27;;;;;;;;;;;4.90;80.30;;;;;;5136293;27;19926;-62
2024/01/28 13:28:00;;;;;;;;;;;5.00;80.40;;;;;;5150513;27;20281;-61
2024/01/28 13:30:34;;;;;;;;;;;5.00;79.70;;;;;;5159648;27;19926;-61
2024/01/28 13:33:07;;;;;;;;;;;5.10;79.70;;;;;;5142206;27;20357;-62
2024/01/28 13:35:40;;;;;;;;;;;5.10;79.50;;;;;;5140096;27;19927;-61
2024/01/28 13:38:13;;;;;;;;;;;5.10;79.40;;;;;;5136047;27;19953;-61
2024/01/28 13:40:47;;;;;;;;;;;5.10;79.60;;;;;;5155495;27;19928;-62
2024/01/28 13:43:21;;;;;;;;;;;5.10;79.20;;;;;;5137555;27;19923;-62
2024/01/28 13:45:56;;;;;;;;;;;5.20;79.20;;;;;;5149782;27;19930;-62
2024/01/28 13:48:30;;;;;;;;;;;5.10;79.50;;;;;;5148222;27;19938;-60
2024/01/28 13:51:34;;;;;;;;;;;5.10;79.50;;;;;;5139718;27;19924;-61
2024/01/28 13:54:34;;;;;;;;;;;5.10;79.80;;;;;;5139177;27;20316;-61
2024/01/28 13:57:09;;;;;;;;;;;5.10;79.60;;;;;;5137086;27;19976;-62
2024/01/28 13:59:44;;;;;;;;;;;5.10;79.50;;;;;;5143595;27;19934;-63
2024/01/28 14:02:31;;;;;;;;;;;5.20;79.50;;;;;;5138604;27;21208;-61
2024/01/28 14:05:12;;;;;;;;;;;5.20;79.10;;;;;;5124071;27;19928;-61
2024/01/28 14:07:46;;;;;;;;;;;5.20;79.20;;;;;;5130070;27;19933;-61
2024/01/28 14:10:19;;;;;;;;;;;5.20;78.80;;;;;;5127459;27;19939;-62
2024/01/28 14:12:54;;;;;;;;;;;5.20;79.20;;;;;;5120060;28;20385;-61
2024/01/28 14:15:27;;;;;;;;;;;5.20;79.20;;;;;;5131856;27;19930;-62
2024/01/28 14:18:00;;;;;;;;;;;5.20;79.00;;;;;;5141525;27;19924;-62
2024/01/28 14:20:34;;;;;;;;;;;5.20;78.80;;;;;;5138790;27;19927;-62
2024/01/28 14:23:07;;;;;;;;;;;5.20;79.00;;;;;;5142007;27;19926;-61
2024/01/28 14:25:40;;;;;;;;;;;5.20;79.00;;;;;;5124408;27;20583;-61
2024/01/28 14:28:15;;;;;;;;;;;5.20;79.10;;;;;;5140194;27;20409;-60
2024/01/28 14:30:48;;;;;;;;;;;5.20;79.20;;;;;;5141739;27;19930;-61
2024/01/28 14:33:21;;;;;;;;;;;5.20;79.20;;;;;;5142000;27;19923;-60
2024/01/28 14:35:54;;;;;;;;;;;5.20;79.20;;;;;;5138313;27;19930;-61
2024/01/28 14:38:27;;;;;;;;;;;5.20;79.30;;;;;;5120941;28;20271;-61
2024/01/28 14:41:00;;;;;;;;;;;5.20;78.90;;;;;;5129065;27;19984;-62
2024/01/28 14:43:28;;;;;;;;;;;5.30;78.20;;;;;;5139581;27;19953;-63
2024/01/28 14:46:01;;;;;;;;;;;5.40;78.30;;;;;;5139933;27;19930;-63
2024/01/28 14:48:36;;;;;;;;;;;5.30;78.70;;;;;;5141628;27;19928;-61
2024/01/28 14:51:09;;;;;;;;;;;5.30;78.90;;;;;;5137603;27;19979;-62
2024/01/28 14:53:42;;;;;;;;;;;5.30;79.10;;;;;;5140406;27;19931;-62
2024/01/28 14:56:15;;;;;;;;;;;5.20;79.50;;;;;;5139281;27;19989;-61
2024/01/28 14:58:49;;;;;;;;;;;5.20;79.70;;;;;;5139853;27;20378;-61